SUBRO HEOC-HEAX
Flight info
| Callsign | SUBRO |
|---|---|
| Flight time | N/A |
| Altitude | 10000 |
| Route | CVO L617 NOZ |
| Aircraft | C172/L-SFG/C |
Departure
| Time | 2026-04-29 22:32 |
|---|---|
| Airport | October Airport (HEOC) |
Arrival
| Time | N/A |
|---|---|
| Airport | Alexandria International Airport (HEAX) |
| Time | Latitude | Longitude | Altitude | Speed | Heading |
|---|---|---|---|---|---|
| 2026-04-29 22:19 | 29.81192 | 30.82694 | 785 ft | 0 kts | 100° |
| 2026-04-29 22:30 | 29.81190 | 30.82698 | 785 ft | 3 kts | 135° |
| 2026-04-29 22:30 | 29.81170 | 30.82681 | 786 ft | 3 kts | 230° |
| 2026-04-29 22:30 | 29.81165 | 30.82674 | 786 ft | 0 kts | 233° |
| 2026-04-29 22:30 | 29.81151 | 30.82646 | 786 ft | 10 kts | 254° |
| 2026-04-29 22:31 | 29.81157 | 30.82516 | 787 ft | 23 kts | 281° |
| 2026-04-29 22:31 | 29.81190 | 30.82336 | 786 ft | 15 kts | 310° |
| 2026-04-29 22:31 | 29.81355 | 30.82358 | 780 ft | 47 kts | 9° |
| 2026-04-29 22:31 | 29.81783 | 30.82450 | 898 ft | 64 kts | 11° |
| 2026-04-29 22:32 | 29.82205 | 30.82515 | 1099 ft | 63 kts | 5° |
| 2026-04-29 22:32 | 29.82642 | 30.82541 | 1297 ft | 62 kts | 2° |
| 2026-04-29 22:32 | 29.83072 | 30.82458 | 1463 ft | 70 kts | 337° |
| 2026-04-29 22:32 | 29.83275 | 30.81855 | 1656 ft | 84 kts | 288° |
| 2026-04-29 22:33 | 29.83010 | 30.81261 | 1882 ft | 89 kts | 230° |
| 2026-04-29 22:33 | 29.82568 | 30.80779 | 2033 ft | 92 kts | 184° |
| 2026-04-29 22:33 | 29.81989 | 30.80674 | 2235 ft | 86 kts | 204° |
| 2026-04-29 22:33 | 29.81392 | 30.80570 | 2402 ft | 88 kts | 195° |
| 2026-04-29 22:34 | 29.80798 | 30.80448 | 2609 ft | 85 kts | 192° |
| 2026-04-29 22:34 | 29.80216 | 30.80384 | 2792 ft | 86 kts | 161° |
| 2026-04-29 22:34 | 29.80063 | 30.80901 | 2944 ft | 70 kts | 43° |
| 2026-04-29 22:34 | 29.80483 | 30.81126 | 3099 ft | 69 kts | 24° |
| 2026-04-29 22:35 | 29.80936 | 30.81348 | 3256 ft | 71 kts | 18° |
| 2026-04-29 22:35 | 29.81377 | 30.81574 | 3451 ft | 70 kts | 18° |
| 2026-04-29 22:35 | 29.81823 | 30.81798 | 3611 ft | 72 kts | 17° |